createdAt,value
2019-02-07T00:00:22.484Z,66.23
2019-02-07T00:00:56.590Z,66.32
2019-02-07T00:01:27.896Z,66.31
2019-02-07T00:01:59.117Z,66.23
2019-02-07T00:02:30.331Z,66.42
2019-02-07T00:03:01.627Z,66.42
2019-02-07T00:03:32.841Z,66.36
2019-02-07T00:04:04.777Z,66.29
2019-02-07T00:04:35.991Z,66.38
2019-02-07T00:05:07.499Z,66.33
2019-02-07T00:05:38.721Z,66.22
2019-02-07T00:06:10.043Z,66.22
2019-02-07T00:06:41.253Z,66.30
2019-02-07T00:07:12.499Z,66.32
2019-02-07T00:07:43.687Z,66.46
2019-02-07T00:08:14.899Z,66.46
2019-02-07T00:08:46.123Z,66.58
2019-02-07T00:09:17.332Z,66.58
2019-02-07T00:09:48.966Z,66.35
2019-02-07T00:10:20.246Z,66.30
2019-02-07T00:10:51.492Z,66.30
2019-02-07T00:11:22.705Z,66.46
2019-02-07T00:11:53.943Z,66.51
2019-02-07T00:12:25.261Z,66.39
2019-02-07T00:12:56.514Z,66.41
2019-02-07T00:13:27.739Z,66.47
2019-02-07T00:13:58.904Z,66.50
2019-02-07T00:14:39.462Z,66.51
2019-02-07T00:15:07.630Z,66.46
2019-02-07T00:15:38.980Z,66.47
2019-02-07T00:16:10.187Z,66.55
2019-02-07T00:16:41.728Z,66.55
2019-02-07T00:17:12.979Z,66.87
2019-02-07T00:17:44.294Z,66.87
2019-02-07T00:18:15.471Z,66.67
2019-02-07T00:18:46.717Z,66.58
2019-02-07T00:19:17.968Z,66.63
2019-02-07T00:19:49.220Z,66.81
2019-02-07T00:20:20.426Z,66.44
2019-02-07T00:20:52.774Z,66.44
2019-02-07T00:21:24.062Z,66.42
2019-02-07T00:21:55.320Z,66.45
2019-02-07T00:22:26.956Z,66.17
2019-02-07T00:22:59.397Z,66.17
2019-02-07T00:23:30.688Z,66.41
2019-02-07T00:24:02.051Z,66.41
2019-02-07T00:24:42.486Z,66.48
2019-02-07T00:25:08.284Z,66.40
2019-02-07T00:25:39.493Z,66.40
2019-02-07T00:26:10.746Z,66.52
2019-02-07T00:26:41.926Z,66.61
2019-02-07T00:27:13.174Z,66.57
2019-02-07T00:27:44.458Z,66.35
2019-02-07T00:28:15.920Z,66.33
2019-02-07T00:28:47.094Z,66.33
2019-02-07T00:29:18.780Z,66.54
2019-02-07T00:29:49.956Z,66.54
2019-02-07T00:30:21.681Z,66.46
2019-02-07T00:30:53.839Z,66.43
2019-02-07T00:31:25.099Z,66.42
2019-02-07T00:31:56.292Z,66.43
2019-02-07T00:32:27.527Z,66.50
2019-02-07T00:32:58.727Z,66.50
2019-02-07T00:33:29.995Z,66.51
2019-02-07T00:34:01.284Z,66.54
2019-02-07T00:34:32.561Z,66.51
2019-02-07T00:35:07.667Z,66.49
2019-02-07T00:35:38.969Z,66.27
2019-02-07T00:36:10.573Z,66.27
2019-02-07T00:36:41.857Z,66.50
2019-02-07T00:37:13.141Z,66.53
2019-02-07T00:37:44.409Z,66.52
2019-02-07T00:38:15.661Z,66.56
2019-02-07T00:38:46.852Z,66.52
2019-02-07T00:39:18.156Z,66.48
2019-02-07T00:39:49.361Z,66.52
2019-02-07T00:40:21.489Z,66.19
2019-02-07T00:40:52.688Z,66.19
2019-02-07T00:41:24.006Z,66.68
2019-02-07T00:41:55.612Z,66.68
2019-02-07T00:42:26.877Z,66.54
2019-02-07T00:42:58.138Z,66.52
2019-02-07T00:43:29.388Z,66.55
2019-02-07T00:44:00.570Z,66.64
2019-02-07T00:44:31.805Z,66.62
2019-02-07T00:45:07.001Z,66.63
2019-02-07T00:45:38.244Z,66.26
2019-02-07T00:46:09.461Z,66.34
2019-02-07T00:46:40.803Z,66.34
2019-02-07T00:47:12.169Z,66.48
2019-02-07T00:47:43.645Z,66.47
2019-02-07T00:48:14.857Z,66.92
2019-02-07T00:48:46.135Z,66.92
2019-02-07T00:49:17.410Z,66.52
2019-02-07T00:49:48.726Z,66.42
2019-02-07T00:50:20.076Z,66.57
2019-02-07T00:50:51.390Z,66.57
2019-02-07T00:51:22.665Z,66.46
2019-02-07T00:51:53.957Z,66.46
2019-02-07T00:52:26.229Z,66.55
2019-02-07T00:52:57.499Z,66.46
2019-02-07T00:53:29.101Z,66.61
2019-02-07T00:54:00.283Z,66.61
2019-02-07T00:54:31.526Z,66.52
2019-02-07T00:55:06.333Z,66.49
2019-02-07T00:55:37.960Z,66.50
2019-02-07T00:56:09.136Z,66.42
2019-02-07T00:56:40.378Z,66.37
2019-02-07T00:57:11.562Z,66.40
2019-02-07T00:57:43.806Z,66.39
2019-02-07T00:58:15.025Z,66.28
2019-02-07T00:58:46.298Z,66.28
2019-02-07T00:59:17.625Z,66.79
2019-02-07T00:59:48.906Z,66.79
2019-02-07T01:00:24.629Z,66.30
2019-02-07T01:00:55.896Z,66.30
2019-02-07T01:01:27.493Z,66.52
2019-02-07T01:01:58.728Z,66.52
2019-02-07T01:02:29.986Z,66.24
2019-02-07T01:03:01.250Z,66.28
2019-02-07T01:03:32.463Z,66.28
2019-02-07T01:04:03.663Z,66.49
2019-02-07T01:04:34.883Z,66.54
2019-02-07T01:05:08.925Z,66.73
2019-02-07T01:05:40.178Z,66.58
2019-02-07T01:06:11.397Z,66.58
2019-02-07T01:06:42.599Z,66.69
2019-02-07T01:07:14.119Z,66.69
2019-02-07T01:07:45.385Z,66.58
2019-02-07T01:08:16.651Z,66.58
2019-02-07T01:08:47.893Z,66.72
2019-02-07T01:09:19.155Z,66.81
2019-02-07T01:09:50.385Z,66.81
2019-02-07T01:10:27.902Z,66.67
2019-02-07T01:10:59.090Z,66.63
2019-02-07T01:11:30.299Z,66.54
2019-02-07T01:12:02.622Z,66.41
2019-02-07T01:12:33.905Z,66.41
2019-02-07T01:13:05.220Z,66.86
2019-02-07T01:13:36.488Z,66.86
2019-02-07T01:14:07.884Z,66.74
2019-02-07T01:14:39.189Z,66.71
2019-02-07T01:15:11.729Z,66.61
2019-02-07T01:15:43.976Z,66.62
2019-02-07T01:16:15.174Z,66.62
2019-02-07T01:16:46.438Z,66.59
2019-02-07T01:17:17.625Z,66.57
2019-02-07T01:17:48.890Z,66.57
2019-02-07T01:18:20.062Z,66.53
2019-02-07T01:18:51.304Z,66.50
2019-02-07T01:19:22.588Z,66.32
2019-02-07T01:19:54.922Z,66.53
2019-02-07T01:20:26.107Z,66.53
2019-02-07T01:20:57.737Z,66.40
2019-02-07T01:21:28.897Z,66.40
2019-02-07T01:22:00.155Z,66.36
2019-02-07T01:22:31.336Z,66.34
2019-02-07T01:23:02.564Z,66.34
2019-02-07T01:23:33.788Z,66.29
2019-02-07T01:24:05.095Z,66.25
2019-02-07T01:24:36.299Z,66.23
2019-02-07T01:25:14.234Z,66.17
2019-02-07T01:25:45.440Z,66.20
2019-02-07T01:26:16.653Z,66.19
2019-02-07T01:26:47.843Z,66.23
2019-02-07T01:27:19.059Z,66.11
2019-02-07T01:27:50.663Z,66.17
2019-02-07T01:28:21.916Z,66.25
2019-02-07T01:28:53.248Z,66.17
2019-02-07T01:29:24.504Z,66.12
2019-02-07T01:29:55.678Z,66.14
2019-02-07T01:30:28.341Z,66.25
2019-02-07T01:30:59.636Z,66.04
2019-02-07T01:31:30.829Z,66.04
2019-02-07T01:32:02.038Z,66.11
2019-02-07T01:32:33.219Z,66.14
2019-02-07T01:33:04.400Z,66.18
2019-02-07T01:33:36.011Z,66.27
2019-02-07T01:34:07.229Z,66.27
2019-02-07T01:34:38.704Z,66.21
2019-02-07T01:35:09.967Z,66.43
2019-02-07T01:35:41.259Z,66.43
2019-02-07T01:36:12.489Z,66.39
2019-02-07T01:36:43.677Z,66.34
2019-02-07T01:37:14.917Z,66.29
2019-02-07T01:37:46.128Z,66.21
2019-02-07T01:38:18.339Z,66.23
2019-02-07T01:38:49.553Z,66.23
2019-02-07T01:39:21.066Z,66.17
2019-02-07T01:39:52.274Z,66.15
2019-02-07T01:40:24.438Z,66.13
2019-02-07T01:40:55.693Z,66.11
2019-02-07T01:41:26.964Z,66.15
2019-02-07T01:41:58.329Z,66.15
2019-02-07T01:42:29.699Z,66.24
2019-02-07T01:43:00.984Z,66.19
2019-02-07T01:43:32.272Z,66.00
2019-02-07T01:44:03.532Z,65.94
2019-02-07T01:44:34.741Z,65.86
2019-02-07T01:45:13.108Z,65.79
2019-02-07T01:45:43.516Z,66.06
2019-02-07T01:46:14.952Z,66.06
2019-02-07T01:46:46.164Z,65.96
2019-02-07T01:47:17.412Z,65.84
2019-02-07T01:47:49.338Z,66.05
2019-02-07T01:48:20.595Z,65.77
2019-02-07T01:48:52.133Z,65.77
2019-02-07T01:49:23.495Z,65.90
2019-02-07T01:49:54.769Z,65.99
2019-02-07T01:50:26.041Z,66.06
2019-02-07T01:50:57.313Z,66.10
2019-02-07T01:51:28.629Z,66.14
2019-02-07T01:52:00.195Z,66.12
2019-02-07T01:52:31.475Z,66.17
2019-02-07T01:53:02.795Z,66.29
2019-02-07T01:53:34.073Z,66.35
2019-02-07T01:54:05.654Z,66.33
2019-02-07T01:54:36.929Z,66.25
2019-02-07T01:55:08.195Z,66.37
2019-02-07T01:55:39.467Z,66.44
2019-02-07T01:56:11.805Z,66.50
2019-02-07T01:56:42.973Z,66.53
2019-02-07T01:57:14.221Z,66.54
2019-02-07T01:57:45.819Z,66.57
2019-02-07T01:58:17.082Z,66.71
2019-02-07T01:58:48.270Z,66.71
2019-02-07T01:59:19.532Z,66.76
2019-02-07T01:59:50.710Z,66.76
2019-02-07T02:00:21.945Z,66.66
2019-02-07T02:00:53.201Z,66.71
2019-02-07T02:01:24.373Z,66.81
2019-02-07T02:01:55.580Z,66.88
2019-02-07T02:02:26.780Z,66.90
2019-02-07T02:02:57.954Z,66.94
2019-02-07T02:03:29.552Z,66.93
2019-02-07T02:04:00.795Z,66.98
2019-02-07T02:04:31.999Z,66.83
2019-02-07T02:05:04.951Z,66.83
2019-02-07T02:05:36.169Z,67.02
2019-02-07T02:06:07.403Z,67.24
2019-02-07T02:06:38.659Z,67.24
2019-02-07T02:07:09.998Z,67.08
2019-02-07T02:07:41.165Z,67.07
2019-02-07T02:08:12.341Z,67.04
2019-02-07T02:08:43.555Z,67.02
2019-02-07T02:09:15.069Z,67.08
2019-02-07T02:09:46.278Z,67.07
2019-02-07T02:10:27.591Z,67.10
2019-02-07T02:10:58.771Z,67.17
2019-02-07T02:11:30.053Z,67.09
2019-02-07T02:12:01.319Z,67.06
2019-02-07T02:12:32.556Z,67.06
2019-02-07T02:13:03.715Z,67.14
2019-02-07T02:13:35.224Z,67.21
2019-02-07T02:14:06.442Z,67.28
2019-02-07T02:14:38.684Z,67.28
2019-02-07T02:15:10.880Z,67.29
2019-02-07T02:15:42.100Z,67.24
2019-02-07T02:16:13.284Z,67.24
2019-02-07T02:16:44.536Z,67.21
2019-02-07T02:17:16.132Z,67.20
2019-02-07T02:17:47.503Z,67.33
2019-02-07T02:18:19.051Z,67.18
2019-02-07T02:18:50.313Z,66.84
2019-02-07T02:19:21.530Z,66.84
2019-02-07T02:19:52.752Z,66.95
2019-02-07T02:20:24.270Z,67.13
2019-02-07T02:20:55.595Z,67.17
2019-02-07T02:21:26.781Z,67.18
2019-02-07T02:21:58.017Z,67.24
2019-02-07T02:22:29.215Z,67.21
2019-02-07T02:23:00.850Z,67.28
2019-02-07T02:23:32.149Z,67.17
2019-02-07T02:24:03.365Z,67.11
2019-02-07T02:24:34.585Z,66.95
2019-02-07T02:25:10.277Z,66.95
2019-02-07T02:25:41.568Z,67.06
2019-02-07T02:26:12.776Z,66.97
2019-02-07T02:26:44.006Z,67.01
2019-02-07T02:27:15.283Z,67.07
2019-02-07T02:27:46.496Z,66.94
2019-02-07T02:28:17.718Z,67.27
2019-02-07T02:28:49.232Z,67.27
2019-02-07T02:29:20.410Z,67.09
2019-02-07T02:29:51.635Z,67.17
2019-02-07T02:30:32.036Z,67.23
2019-02-07T02:31:03.738Z,67.24
2019-02-07T02:31:35.190Z,67.12
2019-02-07T02:32:06.442Z,67.23
2019-02-07T02:32:37.599Z,67.28
2019-02-07T02:33:08.894Z,67.27
2019-02-07T02:33:40.073Z,67.28
2019-02-07T02:34:11.336Z,67.28
2019-02-07T02:34:42.545Z,67.31
2019-02-07T02:35:13.822Z,67.32
2019-02-07T02:35:45.556Z,67.26
2019-02-07T02:36:16.925Z,67.25
2019-02-07T02:36:48.591Z,67.30
2019-02-07T02:37:19.864Z,67.30
2019-02-07T02:37:51.151Z,67.53
2019-02-07T02:38:22.409Z,67.53
2019-02-07T02:38:53.701Z,67.30
2019-02-07T02:39:24.987Z,67.17
2019-02-07T02:39:56.243Z,67.18
2019-02-07T02:40:28.400Z,67.07
2019-02-07T02:41:00.678Z,67.07
2019-02-07T02:41:31.948Z,67.44
2019-02-07T02:42:03.145Z,67.44
2019-02-07T02:42:34.766Z,67.17
2019-02-07T02:43:05.975Z,67.21
2019-02-07T02:43:37.186Z,67.21
2019-02-07T02:44:08.405Z,67.10
2019-02-07T02:44:39.643Z,67.23
2019-02-07T02:45:20.338Z,67.23
2019-02-07T02:45:51.617Z,67.27
2019-02-07T02:46:22.825Z,67.30
2019-02-07T02:46:54.092Z,67.32
2019-02-07T02:47:25.260Z,67.39
2019-02-07T02:47:56.521Z,67.42
2019-02-07T02:48:27.742Z,67.51
2019-02-07T02:48:58.992Z,67.51
2019-02-07T02:49:30.567Z,67.32
2019-02-07T02:50:04.220Z,67.36
2019-02-07T02:50:35.793Z,67.07
2019-02-07T02:51:07.087Z,67.07
2019-02-07T02:51:38.267Z,67.08
2019-02-07T02:52:09.568Z,67.08
2019-02-07T02:52:40.834Z,67.24
2019-02-07T02:53:12.087Z,67.27
2019-02-07T02:53:43.280Z,67.32
2019-02-07T02:54:31.093Z,67.24
2019-02-07T02:55:04.085Z,67.25
2019-02-07T02:55:37.127Z,67.38
2019-02-07T02:56:08.739Z,67.21
2019-02-07T02:56:40.147Z,67.21
2019-02-07T02:57:11.416Z,67.36
2019-02-07T02:57:42.711Z,67.42
2019-02-07T02:58:14.007Z,67.51
2019-02-07T02:58:45.261Z,67.50
2019-02-07T02:59:16.578Z,67.56
2019-02-07T02:59:48.302Z,67.62
2019-02-07T03:00:21.430Z,67.46
2019-02-07T03:00:52.664Z,67.47
2019-02-07T03:01:38.129Z,67.33
2019-02-07T03:02:29.545Z,67.71
2019-02-07T03:03:12.638Z,67.71
2019-02-07T03:03:45.743Z,67.54
2019-02-07T03:04:18.829Z,67.49
2019-02-07T03:04:54.472Z,67.51
2019-02-07T03:05:27.667Z,67.54
2019-02-07T03:06:01.803Z,67.51
2019-02-07T03:06:40.519Z,67.52
2019-02-07T03:07:20.510Z,67.64
2019-02-07T03:07:53.937Z,67.67
2019-02-07T03:08:27.127Z,67.65
2019-02-07T03:09:00.640Z,67.64
2019-02-07T03:09:36.659Z,67.77
2019-02-07T03:10:11.315Z,67.77
2019-02-07T03:10:50.041Z,67.72
2019-02-07T03:11:36.042Z,67.81
2019-02-07T03:12:19.331Z,67.78
2019-02-07T03:12:59.238Z,67.77
2019-02-07T03:13:35.267Z,67.80
2019-02-07T03:14:20.411Z,67.85
2019-02-07T03:14:53.488Z,67.85
2019-02-07T03:15:35.268Z,68.02
2019-02-07T03:16:11.081Z,68.01
2019-02-07T03:16:54.331Z,68.04
2019-02-07T03:17:30.435Z,68.04
2019-02-07T03:18:16.411Z,67.90
2019-02-07T03:19:06.031Z,67.89
2019-02-07T03:19:48.090Z,67.97
2019-02-07T03:20:23.913Z,67.98
2019-02-07T03:20:59.954Z,67.99
2019-02-07T03:21:33.133Z,68.02
2019-02-07T03:22:22.229Z,68.10
2019-02-07T03:23:07.255Z,68.11
2019-02-07T03:23:49.555Z,68.00
2019-02-07T03:24:29.510Z,67.94
2019-02-07T03:25:02.669Z,67.98
2019-02-07T03:25:44.725Z,68.00
2019-02-07T03:26:26.893Z,67.83
2019-02-07T03:26:59.969Z,67.82
2019-02-07T03:27:42.131Z,67.50
2019-02-07T03:28:24.183Z,67.50
2019-02-07T03:29:10.332Z,67.75
2019-02-07T03:30:00.529Z,67.81
2019-02-07T03:30:44.716Z,67.87
2019-02-07T03:31:24.856Z,68.02
2019-02-07T03:32:04.401Z,67.96
2019-02-07T03:32:43.100Z,67.89
2019-02-07T03:33:18.880Z,67.89
2019-02-07T03:34:03.693Z,68.14
2019-02-07T03:34:53.509Z,68.10
2019-02-07T03:35:24.994Z,68.10
2019-02-07T03:35:58.137Z,67.97
2019-02-07T03:36:47.716Z,67.97
2019-02-07T03:37:20.899Z,68.28
2019-02-07T03:37:56.841Z,68.28
2019-02-07T03:38:30.076Z,68.29
2019-02-07T03:39:14.899Z,68.34
2019-02-07T03:39:51.947Z,68.41
2019-02-07T03:40:31.833Z,68.21
2019-02-07T03:41:06.909Z,68.21
2019-02-07T03:41:56.712Z,68.44
2019-02-07T03:42:29.855Z,68.37
2019-02-07T03:43:08.459Z,68.28
2019-02-07T03:43:39.708Z,68.44
2019-02-07T03:44:24.540Z,68.42
2019-02-07T03:45:00.861Z,68.65
2019-02-07T03:45:34.037Z,68.65
2019-02-07T03:46:10.180Z,68.53
2019-02-07T03:46:49.094Z,68.63
2019-02-07T03:47:27.985Z,68.46
2019-02-07T03:48:16.410Z,68.42
2019-02-07T03:49:01.519Z,68.53
2019-02-07T03:49:50.981Z,68.62
2019-02-07T03:50:24.330Z,68.62
2019-02-07T03:50:57.422Z,68.59
2019-02-07T03:51:30.952Z,68.53
2019-02-07T03:52:04.033Z,68.57
2019-02-07T03:52:49.515Z,68.55
2019-02-07T03:53:22.681Z,68.64
2019-02-07T03:53:55.839Z,68.72
2019-02-07T03:54:28.899Z,68.72
2019-02-07T03:55:13.763Z,68.64
2019-02-07T03:55:55.445Z,68.64
2019-02-07T03:56:31.624Z,68.62
2019-02-07T03:57:04.714Z,68.62
2019-02-07T03:57:38.089Z,68.34
2019-02-07T03:58:11.222Z,68.62
2019-02-07T03:58:50.020Z,68.70
2019-02-07T03:59:38.157Z,68.70
2019-02-07T04:00:15.025Z,68.51
2019-02-07T04:00:53.876Z,68.53
2019-02-07T04:01:29.922Z,68.48
2019-02-07T04:02:18.008Z,68.62
2019-02-07T04:03:07.651Z,68.72
2019-02-07T04:03:40.757Z,68.63
2019-02-07T04:04:31.643Z,68.56
2019-02-07T04:05:06.945Z,68.62
2019-02-07T04:05:45.735Z,68.58
2019-02-07T04:06:18.847Z,68.61
2019-02-07T04:07:08.511Z,68.50
2019-02-07T04:07:41.617Z,68.64
2019-02-07T04:08:26.704Z,68.43
2019-02-07T04:08:59.791Z,68.43
2019-02-07T04:09:33.703Z,68.72
2019-02-07T04:10:10.625Z,68.83
2019-02-07T04:10:44.854Z,68.88
2019-02-07T04:11:23.786Z,69.00
2019-02-07T04:11:55.026Z,68.92
2019-02-07T04:12:37.909Z,69.02
2019-02-07T04:13:11.066Z,69.08
2019-02-07T04:13:44.338Z,69.04
2019-02-07T04:14:35.366Z,69.17
2019-02-07T04:15:08.610Z,69.02
2019-02-07T04:15:51.675Z,69.08
2019-02-07T04:16:24.756Z,69.21
2019-02-07T04:17:03.464Z,69.10
2019-02-07T04:17:52.919Z,69.38
2019-02-07T04:18:37.877Z,69.38
2019-02-07T04:19:28.771Z,69.32
2019-02-07T04:20:07.575Z,69.39
2019-02-07T04:20:40.691Z,69.21
2019-02-07T04:21:14.816Z,69.47
2019-02-07T04:21:50.652Z,69.40
2019-02-07T04:22:21.872Z,69.41
2019-02-07T04:22:54.973Z,69.30
2019-02-07T04:23:40.005Z,69.30
2019-02-07T04:24:13.317Z,69.35
2019-02-07T04:24:52.899Z,69.17
2019-02-07T04:25:25.972Z,69.07
2019-02-07T04:26:15.211Z,69.07
2019-02-07T04:26:50.911Z,69.19
2019-02-07T04:27:24.062Z,69.14
2019-02-07T04:28:01.008Z,69.23
2019-02-07T04:28:39.957Z,69.20
2019-02-07T04:29:21.854Z,69.11
2019-02-07T04:29:55.112Z,69.15
2019-02-07T04:30:44.977Z,69.27
2019-02-07T04:31:18.078Z,69.13
2019-02-07T04:31:57.117Z,69.09
2019-02-07T04:32:47.948Z,69.09
2019-02-07T04:33:19.158Z,69.09
2019-02-07T04:33:55.579Z,69.03
2019-02-07T04:34:37.753Z,68.97
2019-02-07T04:35:10.961Z,69.03
2019-02-07T04:36:00.473Z,69.09
2019-02-07T04:36:33.590Z,68.90
2019-02-07T04:37:09.679Z,68.88
2019-02-07T04:37:48.511Z,69.07
2019-02-07T04:38:21.629Z,69.11
2019-02-07T04:39:06.862Z,68.99
2019-02-07T04:39:38.488Z,69.05
2019-02-07T04:40:18.433Z,69.21
2019-02-07T04:40:54.366Z,69.26
2019-02-07T04:41:30.942Z,69.25
2019-02-07T04:42:06.870Z,69.33
2019-02-07T04:42:40.148Z,69.25
2019-02-07T04:43:13.229Z,69.36
2019-02-07T04:43:46.345Z,69.17
2019-02-07T04:44:31.247Z,69.17
2019-02-07T04:45:23.683Z,69.40
2019-02-07T04:46:02.591Z,69.44
2019-02-07T04:46:36.026Z,69.37
2019-02-07T04:47:25.404Z,69.43
2019-02-07T04:48:04.512Z,69.46
2019-02-07T04:48:38.285Z,69.54
2019-02-07T04:49:26.432Z,69.49
2019-02-07T04:50:02.922Z,69.61
2019-02-07T04:50:39.909Z,69.64
2019-02-07T04:51:18.929Z,69.57
2019-02-07T04:52:05.044Z,69.58
2019-02-07T04:52:44.079Z,69.73
2019-02-07T04:53:33.829Z,69.84
2019-02-07T04:54:07.107Z,69.45
2019-02-07T04:54:46.219Z,69.45
2019-02-07T04:55:19.392Z,69.84
2019-02-07T04:56:01.210Z,69.94
2019-02-07T04:56:36.992Z,69.94
2019-02-07T04:57:16.163Z,69.99
2019-02-07T04:57:54.958Z,69.89
2019-02-07T04:58:31.077Z,69.91
2019-02-07T04:59:16.129Z,69.85
2019-02-07T05:00:00.839Z,69.90
2019-02-07T05:00:34.005Z,69.96
2019-02-07T05:01:07.803Z,70.01
2019-02-07T05:01:39.135Z,70.02
2019-02-07T05:02:20.775Z,70.02
2019-02-07T05:02:52.027Z,70.12
2019-02-07T05:03:23.199Z,70.13
2019-02-07T05:04:00.155Z,70.04
2019-02-07T05:04:35.803Z,70.15
2019-02-07T05:05:18.443Z,70.27
2019-02-07T05:05:51.663Z,70.20
2019-02-07T05:06:41.331Z,70.24
2019-02-07T05:07:14.806Z,70.21
2019-02-07T05:07:47.982Z,70.38
2019-02-07T05:08:30.481Z,70.35
2019-02-07T05:09:03.701Z,70.35
2019-02-07T05:09:44.607Z,70.35
2019-02-07T05:10:20.394Z,70.45
2019-02-07T05:10:53.601Z,70.44
2019-02-07T05:11:30.521Z,70.54
2019-02-07T05:12:09.617Z,70.46
2019-02-07T05:12:58.964Z,70.54
2019-02-07T05:13:35.096Z,70.64
2019-02-07T05:14:17.329Z,70.67
2019-02-07T05:15:02.302Z,70.65
2019-02-07T05:15:35.576Z,70.69
2019-02-07T05:16:09.491Z,70.75
2019-02-07T05:16:59.159Z,70.71
2019-02-07T05:17:38.324Z,70.71
2019-02-07T05:18:15.193Z,70.79
2019-02-07T05:18:54.321Z,70.61
2019-02-07T05:19:36.096Z,70.65
2019-02-07T05:20:10.167Z,70.65
2019-02-07T05:20:48.887Z,70.74
2019-02-07T05:21:28.025Z,70.87
2019-02-07T05:21:59.174Z,70.89
2019-02-07T05:22:35.221Z,70.94
2019-02-07T05:23:21.171Z,70.84
2019-02-07T05:23:52.410Z,70.89
2019-02-07T05:24:26.888Z,71.03
2019-02-07T05:25:05.993Z,71.02
2019-02-07T05:25:37.568Z,70.88
2019-02-07T05:26:16.515Z,70.94
2019-02-07T05:26:56.996Z,70.91
2019-02-07T05:27:28.287Z,70.98
2019-02-07T05:28:01.493Z,70.93
2019-02-07T05:28:34.670Z,71.05
2019-02-07T05:29:25.930Z,70.94
2019-02-07T05:29:59.098Z,70.94
2019-02-07T05:30:39.320Z,71.02
2019-02-07T05:31:12.425Z,71.07
2019-02-07T05:31:55.542Z,70.99
2019-02-07T05:32:45.327Z,71.09
2019-02-07T05:33:24.133Z,71.10
2019-02-07T05:33:57.241Z,71.03
2019-02-07T05:34:46.995Z,71.15
2019-02-07T05:35:25.905Z,70.97
2019-02-07T05:36:12.503Z,71.16
2019-02-07T05:36:54.654Z,71.19
2019-02-07T05:37:39.872Z,71.13
2019-02-07T05:38:19.823Z,71.19
2019-02-07T05:38:53.009Z,71.22
2019-02-07T05:39:42.852Z,71.21
2019-02-07T05:40:15.978Z,71.25
2019-02-07T05:41:05.482Z,71.36
2019-02-07T05:41:45.486Z,71.43
2019-02-07T05:42:18.652Z,71.37
2019-02-07T05:43:09.900Z,71.34
2019-02-07T05:43:59.362Z,71.36
2019-02-07T05:44:41.159Z,71.33
2019-02-07T05:45:18.136Z,71.25
2019-02-07T05:45:49.405Z,71.16
2019-02-07T05:46:22.792Z,71.09
2019-02-07T05:46:54.055Z,71.04
2019-02-07T05:47:31.397Z,70.98
2019-02-07T05:48:11.459Z,71.05
2019-02-07T05:48:50.575Z,71.00
2019-02-07T05:49:29.503Z,71.12
2019-02-07T05:50:02.657Z,71.02
2019-02-07T05:50:53.489Z,71.04
2019-02-07T05:51:38.732Z,71.08
2019-02-07T05:52:11.787Z,71.28
2019-02-07T05:52:59.963Z,71.27
2019-02-07T05:53:34.019Z,71.26
2019-02-07T05:54:07.179Z,71.29
2019-02-07T05:54:42.842Z,71.25
2019-02-07T05:55:15.984Z,71.31
2019-02-07T05:56:05.236Z,71.25
2019-02-07T05:56:48.634Z,71.20
2019-02-07T05:57:30.596Z,71.20
2019-02-07T05:58:06.438Z,71.38
2019-02-07T05:58:59.067Z,71.17
2019-02-07T05:59:29.226Z,71.11
2019-02-07T06:00:00.510Z,71.04
2019-02-07T06:00:33.751Z,71.04
2019-02-07T06:01:05.201Z,71.04
2019-02-07T06:01:47.009Z,71.11
2019-02-07T06:02:36.591Z,70.99
2019-02-07T06:03:27.287Z,71.16
2019-02-07T06:04:03.263Z,71.21
2019-02-07T06:04:42.370Z,70.95
2019-02-07T06:05:15.439Z,71.03
2019-02-07T06:05:51.474Z,71.10
2019-02-07T06:06:30.559Z,71.06
2019-02-07T06:07:06.475Z,71.04
2019-02-07T06:07:49.413Z,70.98
2019-02-07T06:08:34.499Z,70.96
2019-02-07T06:09:26.050Z,70.94
2019-02-07T06:10:15.711Z,70.93
2019-02-07T06:10:51.380Z,71.07
2019-02-07T06:11:25.568Z,71.15
2019-02-07T06:12:04.521Z,71.10
2019-02-07T06:12:40.300Z,71.05
2019-02-07T06:13:16.188Z,71.06
2019-02-07T06:14:04.233Z,71.22
2019-02-07T06:14:43.439Z,71.19
2019-02-07T06:15:25.591Z,71.21
2019-02-07T06:16:15.124Z,71.19
2019-02-07T06:16:48.251Z,71.25
2019-02-07T06:17:28.881Z,71.35
2019-02-07T06:18:18.507Z,71.26
2019-02-07T06:19:08.131Z,71.26
2019-02-07T06:19:57.825Z,71.25
2019-02-07T06:20:33.975Z,71.28
2019-02-07T06:21:09.970Z,71.29
2019-02-07T06:21:48.728Z,71.33
2019-02-07T06:22:33.535Z,71.18
2019-02-07T06:23:23.467Z,71.34
2019-02-07T06:23:56.545Z,71.36
2019-02-07T06:24:29.670Z,71.40
2019-02-07T06:25:08.415Z,71.47
2019-02-07T06:25:41.589Z,71.45
2019-02-07T06:26:31.015Z,71.53
2019-02-07T06:27:08.135Z,71.42
2019-02-07T06:27:51.690Z,71.43
2019-02-07T06:28:35.288Z,71.37
2019-02-07T06:29:10.966Z,71.53
2019-02-07T06:29:44.091Z,71.45
2019-02-07T06:30:26.341Z,71.54
2019-02-07T06:31:00.469Z,71.50
2019-02-07T06:31:33.591Z,71.61
2019-02-07T06:32:09.556Z,71.51
2019-02-07T06:33:00.301Z,71.45
2019-02-07T06:33:51.443Z,71.46
2019-02-07T06:34:29.056Z,71.55
2019-02-07T06:34:56.751Z,71.48
2019-02-07T06:35:46.312Z,71.53
2019-02-07T06:36:19.393Z,71.59
2019-02-07T06:36:59.659Z,71.45
2019-02-07T06:37:35.560Z,71.54
2019-02-07T06:38:11.356Z,71.47
2019-02-07T06:38:45.513Z,71.38
2019-02-07T06:39:22.562Z,71.45
2019-02-07T06:40:07.741Z,71.41
2019-02-07T06:40:40.858Z,71.39
2019-02-07T06:41:13.994Z,71.30
2019-02-07T06:41:50.883Z,71.34
2019-02-07T06:42:24.166Z,71.31
2019-02-07T06:43:15.336Z,71.35
2019-02-07T06:43:51.107Z,71.22
2019-02-07T06:44:33.083Z,71.24
2019-02-07T06:45:23.033Z,71.29
2019-02-07T06:46:07.072Z,71.36
2019-02-07T06:46:56.716Z,71.24
2019-02-07T06:47:39.979Z,71.32
2019-02-07T06:48:11.230Z,71.44
2019-02-07T06:49:00.679Z,71.38
2019-02-07T06:49:39.727Z,71.44
2019-02-07T06:50:18.848Z,71.33
2019-02-07T06:50:54.885Z,71.28
2019-02-07T06:51:46.017Z,71.26
2019-02-07T06:52:19.181Z,71.32
2019-02-07T06:53:07.581Z,71.32
2019-02-07T06:53:41.660Z,71.40
2019-02-07T06:54:26.494Z,71.27
2019-02-07T06:54:57.748Z,71.26
2019-02-07T06:55:30.822Z,71.29
2019-02-07T06:56:20.608Z,71.30
2019-02-07T06:56:51.818Z,71.21
2019-02-07T06:57:25.730Z,71.26
2019-02-07T06:58:01.736Z,71.22
2019-02-07T06:58:49.784Z,71.21
2019-02-07T06:59:28.755Z,71.11
2019-02-07T07:00:14.075Z,71.03
2019-02-07T07:00:45.247Z,71.02
2019-02-07T07:01:34.740Z,71.07
2019-02-07T07:02:12.119Z,70.98
2019-02-07T07:03:01.814Z,70.99
2019-02-07T07:03:41.845Z,70.95
2019-02-07T07:04:28.146Z,70.90
2019-02-07T07:05:17.845Z,70.98
2019-02-07T07:05:55.031Z,70.93
2019-02-07T07:06:36.932Z,70.75
2019-02-07T07:07:10.865Z,70.65
2019-02-07T07:07:52.910Z,70.52
2019-02-07T07:08:28.755Z,70.44
2019-02-07T07:09:18.472Z,70.36
2019-02-07T07:10:00.582Z,70.42
2019-02-07T07:10:48.408Z,70.44
2019-02-07T07:11:21.548Z,70.44
2019-02-07T07:12:04.716Z,70.36
2019-02-07T07:12:44.877Z,70.44
2019-02-07T07:13:32.860Z,70.33
2019-02-07T07:14:08.696Z,70.31
2019-02-07T07:14:48.245Z,70.22
2019-02-07T07:15:27.091Z,70.23
2019-02-07T07:16:16.805Z,70.31
2019-02-07T07:16:49.866Z,70.28
2019-02-07T07:17:28.634Z,70.16
2019-02-07T07:18:13.451Z,70.20
2019-02-07T07:19:03.121Z,70.17
2019-02-07T07:19:46.418Z,70.14
2019-02-07T07:20:25.550Z,70.13
2019-02-07T07:20:59.523Z,70.00
2019-02-07T07:21:44.977Z,69.98
2019-02-07T07:22:20.989Z,70.06
2019-02-07T07:23:06.991Z,70.04
2019-02-07T07:23:56.530Z,70.03
2019-02-07T07:24:39.904Z,70.18
2019-02-07T07:25:30.914Z,70.13
2019-02-07T07:26:20.735Z,70.06
2019-02-07T07:27:02.578Z,70.05
2019-02-07T07:27:51.976Z,70.10
2019-02-07T07:28:29.390Z,70.08
2019-02-07T07:29:09.346Z,70.00
2019-02-07T07:29:42.535Z,69.93
2019-02-07T07:30:15.716Z,69.80
2019-02-07T07:30:54.885Z,70.09
2019-02-07T07:31:30.916Z,70.09
2019-02-07T07:32:10.339Z,69.91
2019-02-07T07:32:59.688Z,69.94
2019-02-07T07:33:47.837Z,69.93
2019-02-07T07:34:29.642Z,69.89
2019-02-07T07:35:11.715Z,69.87
2019-02-07T07:35:59.806Z,69.86
2019-02-07T07:36:38.650Z,69.83
2019-02-07T07:37:11.729Z,69.88
2019-02-07T07:37:44.924Z,69.85
2019-02-07T07:38:23.658Z,69.90
2019-02-07T07:38:56.824Z,69.89
2019-02-07T07:39:33.894Z,69.82
2019-02-07T07:40:10.138Z,69.90
2019-02-07T07:40:49.218Z,69.98
2019-02-07T07:41:25.212Z,69.85
2019-02-07T07:41:59.148Z,69.72
2019-02-07T07:42:48.547Z,69.83
2019-02-07T07:43:37.883Z,69.87
2019-02-07T07:44:19.885Z,69.72